sensor_id;sensor_type;location;lat;lon;timestamp;P1;durP1;ratioP1;P2;durP2;ratioP2
74922;SDS011;64715;44.760;37.678;2022-11-15T00:00:51;8.05;;;2.35;;
74922;SDS011;64715;44.760;37.678;2022-11-15T00:02:10;7.65;;;2.30;;
74922;SDS011;64715;44.760;37.678;2022-11-15T00:03:30;8.93;;;2.30;;
74922;SDS011;64715;44.760;37.678;2022-11-15T00:04:50;7.43;;;2.50;;
74922;SDS011;64715;44.760;37.678;2022-11-15T00:06:10;8.10;;;2.50;;
74922;SDS011;64715;44.760;37.678;2022-11-15T00:07:29;10.43;;;2.70;;
74922;SDS011;64715;44.760;37.678;2022-11-15T00:08:49;8.98;;;2.45;;
74922;SDS011;64715;44.760;37.678;2022-11-15T00:10:09;8.88;;;2.17;;
74922;SDS011;64715;44.760;37.678;2022-11-15T00:11:29;8.05;;;2.50;;
74922;SDS011;64715;44.760;37.678;2022-11-15T00:12:49;12.02;;;2.22;;
74922;SDS011;64715;44.760;37.678;2022-11-15T00:14:08;8.85;;;2.30;;
74922;SDS011;64715;44.760;37.678;2022-11-15T00:15:28;9.63;;;2.45;;
74922;SDS011;64715;44.760;37.678;2022-11-15T00:16:48;7.93;;;2.20;;
74922;SDS011;64715;44.760;37.678;2022-11-15T00:18:12;8.90;;;2.20;;
74922;SDS011;64715;44.760;37.678;2022-11-15T00:19:33;8.45;;;2.13;;
74922;SDS011;64715;44.760;37.678;2022-11-15T00:20:53;8.30;;;2.50;;
74922;SDS011;64715;44.760;37.678;2022-11-15T00:22:13;6.82;;;1.95;;
74922;SDS011;64715;44.760;37.678;2022-11-15T00:23:33;10.98;;;2.35;;
74922;SDS011;64715;44.760;37.678;2022-11-15T00:24:53;8.50;;;2.22;;
74922;SDS011;64715;44.760;37.678;2022-11-15T00:26:13;8.38;;;2.38;;
74922;SDS011;64715;44.760;37.678;2022-11-15T00:27:33;8.55;;;2.88;;
74922;SDS011;64715;44.760;37.678;2022-11-15T00:28:53;7.85;;;2.35;;
74922;SDS011;64715;44.760;37.678;2022-11-15T00:30:13;11.90;;;2.80;;
74922;SDS011;64715;44.760;37.678;2022-11-15T00:31:32;9.60;;;2.80;;
74922;SDS011;64715;44.760;37.678;2022-11-15T00:32:52;10.07;;;3.10;;
74922;SDS011;64715;44.760;37.678;2022-11-15T00:34:11;13.25;;;3.92;;
74922;SDS011;64715;44.760;37.678;2022-11-15T00:35:31;12.15;;;3.63;;
74922;SDS011;64715;44.760;37.678;2022-11-15T00:36:52;10.88;;;3.22;;
74922;SDS011;64715;44.760;37.678;2022-11-15T00:38:12;10.65;;;3.97;;
74922;SDS011;64715;44.760;37.678;2022-11-15T00:39:31;10.38;;;3.17;;
74922;SDS011;64715;44.760;37.678;2022-11-15T00:40:51;9.98;;;3.28;;
74922;SDS011;64715;44.760;37.678;2022-11-15T00:42:10;9.90;;;3.08;;
74922;SDS011;64715;44.760;37.678;2022-11-15T00:43:29;9.63;;;2.80;;
74922;SDS011;64715;44.760;37.678;2022-11-15T00:44:49;9.25;;;2.90;;
74922;SDS011;64715;44.760;37.678;2022-11-15T00:46:09;9.05;;;3.40;;
74922;SDS011;64715;44.760;37.678;2022-11-15T00:47:28;8.57;;;2.55;;
74922;SDS011;64715;44.760;37.678;2022-11-15T00:48:48;7.90;;;2.38;;
74922;SDS011;64715;44.760;37.678;2022-11-15T00:50:07;9.52;;;2.30;;
74922;SDS011;64715;44.760;37.678;2022-11-15T00:51:28;8.32;;;2.35;;
74922;SDS011;64715;44.760;37.678;2022-11-15T00:52:48;9.75;;;2.30;;
74922;SDS011;64715;44.760;37.678;2022-11-15T00:54:07;9.57;;;2.58;;
74922;SDS011;64715;44.760;37.678;2022-11-15T00:55:26;8.52;;;2.53;;
74922;SDS011;64715;44.760;37.678;2022-11-15T00:56:45;7.80;;;2.30;;
74922;SDS011;64715;44.760;37.678;2022-11-15T00:58:05;9.27;;;2.60;;
74922;SDS011;64715;44.760;37.678;2022-11-15T00:59:26;9.88;;;2.63;;
74922;SDS011;64715;44.760;37.678;2022-11-15T01:00:45;7.75;;;2.25;;
74922;SDS011;64715;44.760;37.678;2022-11-15T01:02:05;10.88;;;2.40;;
74922;SDS011;64715;44.760;37.678;2022-11-15T01:03:25;8.73;;;2.45;;
74922;SDS011;64715;44.760;37.678;2022-11-15T01:04:45;10.07;;;2.80;;
74922;SDS011;64715;44.760;37.678;2022-11-15T01:06:05;9.23;;;2.50;;
74922;SDS011;64715;44.760;37.678;2022-11-15T01:07:27;9.77;;;2.63;;
74922;SDS011;64715;44.760;37.678;2022-11-15T01:08:46;9.07;;;2.42;;
74922;SDS011;64715;44.760;37.678;2022-11-15T01:10:06;9.93;;;2.53;;
74922;SDS011;64715;44.760;37.678;2022-11-15T01:11:26;10.23;;;2.80;;
74922;SDS011;64715;44.760;37.678;2022-11-15T01:12:45;7.82;;;2.60;;
74922;SDS011;64715;44.760;37.678;2022-11-15T01:14:05;9.80;;;2.67;;
74922;SDS011;64715;44.760;37.678;2022-11-15T01:15:26;11.13;;;2.72;;
74922;SDS011;64715;44.760;37.678;2022-11-15T01:16:45;8.30;;;2.60;;
74922;SDS011;64715;44.760;37.678;2022-11-15T01:18:05;8.98;;;2.40;;
74922;SDS011;64715;44.760;37.678;2022-11-15T01:19:25;9.18;;;2.60;;
74922;SDS011;64715;44.760;37.678;2022-11-15T01:20:45;9.65;;;2.40;;
74922;SDS011;64715;44.760;37.678;2022-11-15T01:22:04;8.85;;;2.53;;
74922;SDS011;64715;44.760;37.678;2022-11-15T01:23:24;9.03;;;2.63;;
74922;SDS011;64715;44.760;37.678;2022-11-15T01:24:44;8.07;;;2.53;;
74922;SDS011;64715;44.760;37.678;2022-11-15T01:26:04;9.25;;;3.13;;
74922;SDS011;64715;44.760;37.678;2022-11-15T01:27:25;9.52;;;2.83;;
74922;SDS011;64715;44.760;37.678;2022-11-15T01:28:45;10.25;;;2.88;;
74922;SDS011;64715;44.760;37.678;2022-11-15T01:30:05;8.32;;;2.60;;
74922;SDS011;64715;44.760;37.678;2022-11-15T01:31:26;10.27;;;3.25;;
74922;SDS011;64715;44.760;37.678;2022-11-15T01:32:45;9.18;;;2.38;;
74922;SDS011;64715;44.760;37.678;2022-11-15T01:34:05;8.95;;;2.83;;
74922;SDS011;64715;44.760;37.678;2022-11-15T01:35:24;8.07;;;2.47;;
74922;SDS011;64715;44.760;37.678;2022-11-15T01:36:44;10.50;;;2.60;;
74922;SDS011;64715;44.760;37.678;2022-11-15T01:38:03;10.65;;;3.00;;
74922;SDS011;64715;44.760;37.678;2022-11-15T01:39:23;9.68;;;2.85;;
74922;SDS011;64715;44.760;37.678;2022-11-15T01:40:42;9.45;;;2.75;;
74922;SDS011;64715;44.760;37.678;2022-11-15T01:42:02;10.63;;;3.10;;
74922;SDS011;64715;44.760;37.678;2022-11-15T01:43:26;9.00;;;2.58;;
74922;SDS011;64715;44.760;37.678;2022-11-15T01:44:47;10.77;;;2.80;;
74922;SDS011;64715;44.760;37.678;2022-11-15T01:47:41;8.27;;;2.40;;
74922;SDS011;64715;44.760;37.678;2022-11-15T01:49:05;9.13;;;2.60;;
74922;SDS011;64715;44.760;37.678;2022-11-15T01:50:35;11.00;;;3.07;;
74922;SDS011;64715;44.760;37.678;2022-11-15T01:51:54;7.95;;;2.65;;
74922;SDS011;64715;44.760;37.678;2022-11-15T01:53:15;10.88;;;2.70;;
74922;SDS011;64715;44.760;37.678;2022-11-15T01:54:36;8.57;;;2.83;;
74922;SDS011;64715;44.760;37.678;2022-11-15T01:55:55;9.90;;;2.85;;
74922;SDS011;64715;44.760;37.678;2022-11-15T01:57:15;11.35;;;3.42;;
74922;SDS011;64715;44.760;37.678;2022-11-15T01:58:35;8.60;;;2.75;;
74922;SDS011;64715;44.760;37.678;2022-11-15T01:59:55;10.05;;;2.92;;
74922;SDS011;64715;44.760;37.678;2022-11-15T02:01:17;8.48;;;3.10;;
74922;SDS011;64715;44.760;37.678;2022-11-15T02:02:36;9.13;;;2.90;;
74922;SDS011;64715;44.760;37.678;2022-11-15T02:04:01;12.33;;;2.97;;
74922;SDS011;64715;44.760;37.678;2022-11-15T02:05:27;10.20;;;3.13;;
74922;SDS011;64715;44.760;37.678;2022-11-15T02:06:49;12.10;;;3.40;;
74922;SDS011;64715;44.760;37.678;2022-11-15T02:08:09;9.32;;;3.30;;
74922;SDS011;64715;44.760;37.678;2022-11-15T02:09:39;10.27;;;3.30;;
74922;SDS011;64715;44.760;37.678;2022-11-15T02:10:59;11.10;;;3.58;;
74922;SDS011;64715;44.760;37.678;2022-11-15T02:12:19;12.95;;;3.17;;
74922;SDS011;64715;44.760;37.678;2022-11-15T02:13:40;10.95;;;3.03;;
74922;SDS011;64715;44.760;37.678;2022-11-15T02:15:02;11.70;;;3.63;;
74922;SDS011;64715;44.760;37.678;2022-11-15T02:27:05;10.20;;;3.22;;
74922;SDS011;64715;44.760;37.678;2022-11-15T02:31:53;8.25;;;2.72;;
74922;SDS011;64715;44.760;37.678;2022-11-15T02:36:06;13.63;;;3.60;;
74922;SDS011;64715;44.760;37.678;2022-11-15T02:37:45;11.95;;;3.70;;
74922;SDS011;64715;44.760;37.678;2022-11-15T02:40:48;11.15;;;3.13;;
74922;SDS011;64715;44.760;37.678;2022-11-15T02:42:18;9.60;;;3.00;;
74922;SDS011;64715;44.760;37.678;2022-11-15T02:44:52;12.57;;;3.10;;
74922;SDS011;64715;44.760;37.678;2022-11-15T02:46:24;11.68;;;3.15;;
74922;SDS011;64715;44.760;37.678;2022-11-15T02:48:13;10.43;;;3.25;;
74922;SDS011;64715;44.760;37.678;2022-11-15T02:49:34;10.83;;;3.30;;
74922;SDS011;64715;44.760;37.678;2022-11-15T02:50:56;13.52;;;3.53;;
74922;SDS011;64715;44.760;37.678;2022-11-15T02:52:19;11.10;;;3.92;;
74922;SDS011;64715;44.760;37.678;2022-11-15T02:53:40;14.35;;;3.95;;
74922;SDS011;64715;44.760;37.678;2022-11-15T02:55:00;11.23;;;3.35;;
74922;SDS011;64715;44.760;37.678;2022-11-15T02:56:20;10.30;;;3.45;;
74922;SDS011;64715;44.760;37.678;2022-11-15T02:59:24;10.73;;;3.17;;
74922;SDS011;64715;44.760;37.678;2022-11-15T03:01:21;11.77;;;3.70;;
74922;SDS011;64715;44.760;37.678;2022-11-15T03:12:27;10.30;;;2.70;;
74922;SDS011;64715;44.760;37.678;2022-11-15T03:13:59;13.20;;;3.10;;
74922;SDS011;64715;44.760;37.678;2022-11-15T03:15:41;10.07;;;3.05;;
74922;SDS011;64715;44.760;37.678;2022-11-15T03:18:35;13.65;;;3.80;;
74922;SDS011;64715;44.760;37.678;2022-11-15T03:19:58;11.63;;;3.27;;
74922;SDS011;64715;44.760;37.678;2022-11-15T03:21:20;10.40;;;3.03;;
74922;SDS011;64715;44.760;37.678;2022-11-15T03:22:42;14.80;;;3.20;;
74922;SDS011;64715;44.760;37.678;2022-11-15T03:24:04;12.00;;;3.30;;
74922;SDS011;64715;44.760;37.678;2022-11-15T03:25:26;12.02;;;3.17;;
74922;SDS011;64715;44.760;37.678;2022-11-15T03:26:48;13.77;;;3.42;;
74922;SDS011;64715;44.760;37.678;2022-11-15T03:28:11;10.43;;;3.20;;
74922;SDS011;64715;44.760;37.678;2022-11-15T03:29:37;12.07;;;3.10;;
74922;SDS011;64715;44.760;37.678;2022-11-15T03:31:01;12.60;;;3.15;;
74922;SDS011;64715;44.760;37.678;2022-11-15T03:32:44;10.95;;;3.30;;
74922;SDS011;64715;44.760;37.678;2022-11-15T03:34:10;10.20;;;2.97;;
74922;SDS011;64715;44.760;37.678;2022-11-15T03:35:39;10.35;;;3.13;;
74922;SDS011;64715;44.760;37.678;2022-11-15T03:37:01;12.38;;;3.65;;
74922;SDS011;64715;44.760;37.678;2022-11-15T03:38:23;11.65;;;3.47;;
74922;SDS011;64715;44.760;37.678;2022-11-15T03:39:44;10.23;;;3.15;;
74922;SDS011;64715;44.760;37.678;2022-11-15T03:41:05;11.85;;;3.22;;
74922;SDS011;64715;44.760;37.678;2022-11-15T03:45:56;9.02;;;2.92;;
74922;SDS011;64715;44.760;37.678;2022-11-15T03:47:31;10.30;;;3.42;;
74922;SDS011;64715;44.760;37.678;2022-11-15T03:49:00;10.77;;;2.93;;
74922;SDS011;64715;44.760;37.678;2022-11-15T03:50:27;9.15;;;3.35;;
74922;SDS011;64715;44.760;37.678;2022-11-15T03:51:48;11.98;;;3.63;;
74922;SDS011;64715;44.760;37.678;2022-11-15T03:53:07;10.52;;;3.55;;
74922;SDS011;64715;44.760;37.678;2022-11-15T03:54:27;9.80;;;3.20;;
74922;SDS011;64715;44.760;37.678;2022-11-15T03:55:47;10.40;;;3.42;;
74922;SDS011;64715;44.760;37.678;2022-11-15T03:57:07;9.10;;;2.80;;
74922;SDS011;64715;44.760;37.678;2022-11-15T03:58:26;10.65;;;3.63;;
74922;SDS011;64715;44.760;37.678;2022-11-15T03:59:45;11.65;;;3.40;;
74922;SDS011;64715;44.760;37.678;2022-11-15T04:01:05;9.85;;;3.38;;
74922;SDS011;64715;44.760;37.678;2022-11-15T04:02:24;10.47;;;3.00;;
74922;SDS011;64715;44.760;37.678;2022-11-15T04:03:43;10.93;;;2.78;;
74922;SDS011;64715;44.760;37.678;2022-11-15T04:05:03;10.38;;;2.88;;
74922;SDS011;64715;44.760;37.678;2022-11-15T04:06:24;8.55;;;2.50;;
74922;SDS011;64715;44.760;37.678;2022-11-15T04:07:44;11.98;;;2.80;;
74922;SDS011;64715;44.760;37.678;2022-11-15T04:09:04;10.52;;;3.05;;
74922;SDS011;64715;44.760;37.678;2022-11-15T04:10:23;12.30;;;2.88;;
74922;SDS011;64715;44.760;37.678;2022-11-15T04:11:43;10.77;;;2.90;;
74922;SDS011;64715;44.760;37.678;2022-11-15T04:13:02;9.55;;;2.67;;
74922;SDS011;64715;44.760;37.678;2022-11-15T04:14:22;10.27;;;2.95;;
74922;SDS011;64715;44.760;37.678;2022-11-15T04:15:41;11.53;;;2.77;;
74922;SDS011;64715;44.760;37.678;2022-11-15T04:17:01;13.98;;;2.88;;
74922;SDS011;64715;44.760;37.678;2022-11-15T04:18:21;11.18;;;2.92;;
74922;SDS011;64715;44.760;37.678;2022-11-15T04:19:41;10.52;;;2.50;;
74922;SDS011;64715;44.760;37.678;2022-11-15T04:21:19;9.35;;;2.60;;
74922;SDS011;64715;44.760;37.678;2022-11-15T04:22:59;8.10;;;2.50;;
74922;SDS011;64715;44.760;37.678;2022-11-15T04:24:38;10.32;;;2.60;;
74922;SDS011;64715;44.760;37.678;2022-11-15T04:25:59;10.98;;;2.47;;
74922;SDS011;64715;44.760;37.678;2022-11-15T04:27:20;12.50;;;2.70;;
74922;SDS011;64715;44.760;37.678;2022-11-15T04:28:40;11.57;;;2.60;;
74922;SDS011;64715;44.760;37.678;2022-11-15T04:30:18;9.37;;;2.20;;
74922;SDS011;64715;44.760;37.678;2022-11-15T04:31:38;12.18;;;2.75;;
74922;SDS011;64715;44.760;37.678;2022-11-15T04:32:57;9.23;;;2.05;;
74922;SDS011;64715;44.760;37.678;2022-11-15T04:34:17;13.10;;;2.92;;
74922;SDS011;64715;44.760;37.678;2022-11-15T04:35:36;9.05;;;2.45;;
74922;SDS011;64715;44.760;37.678;2022-11-15T04:36:57;11.18;;;2.65;;
74922;SDS011;64715;44.760;37.678;2022-11-15T04:38:31;8.77;;;2.25;;
74922;SDS011;64715;44.760;37.678;2022-11-15T04:39:52;9.45;;;2.40;;
74922;SDS011;64715;44.760;37.678;2022-11-15T04:41:11;13.63;;;7.68;;
74922;SDS011;64715;44.760;37.678;2022-11-15T04:42:31;12.82;;;5.32;;
74922;SDS011;64715;44.760;37.678;2022-11-15T04:43:51;12.87;;;4.93;;
74922;SDS011;64715;44.760;37.678;2022-11-15T04:45:10;10.55;;;3.10;;
74922;SDS011;64715;44.760;37.678;2022-11-15T04:46:30;8.07;;;2.30;;
74922;SDS011;64715;44.760;37.678;2022-11-15T04:47:50;7.40;;;2.00;;
74922;SDS011;64715;44.760;37.678;2022-11-15T04:49:10;6.55;;;1.98;;
74922;SDS011;64715;44.760;37.678;2022-11-15T04:50:30;6.05;;;1.50;;
74922;SDS011;64715;44.760;37.678;2022-11-15T04:51:49;7.20;;;1.58;;
74922;SDS011;64715;44.760;37.678;2022-11-15T04:53:09;9.85;;;1.48;;
74922;SDS011;64715;44.760;37.678;2022-11-15T04:54:28;6.60;;;1.70;;
74922;SDS011;64715;44.760;37.678;2022-11-15T04:55:48;6.32;;;1.30;;
74922;SDS011;64715;44.760;37.678;2022-11-15T04:57:08;7.07;;;1.27;;
74922;SDS011;64715;44.760;37.678;2022-11-15T04:58:28;8.20;;;1.63;;
74922;SDS011;64715;44.760;37.678;2022-11-15T04:59:48;6.85;;;2.05;;
74922;SDS011;64715;44.760;37.678;2022-11-15T05:01:07;9.55;;;1.50;;
74922;SDS011;64715;44.760;37.678;2022-11-15T05:02:30;6.55;;;1.67;;
74922;SDS011;64715;44.760;37.678;2022-11-15T05:04:10;7.32;;;1.63;;
74922;SDS011;64715;44.760;37.678;2022-11-15T05:05:39;6.95;;;1.55;;
74922;SDS011;64715;44.760;37.678;2022-11-15T05:06:59;10.73;;;2.05;;
74922;SDS011;64715;44.760;37.678;2022-11-15T05:08:19;6.25;;;1.90;;
74922;SDS011;64715;44.760;37.678;2022-11-15T05:09:38;7.88;;;1.50;;
74922;SDS011;64715;44.760;37.678;2022-11-15T05:10:58;7.33;;;1.30;;
74922;SDS011;64715;44.760;37.678;2022-11-15T05:12:17;6.10;;;1.30;;
74922;SDS011;64715;44.760;37.678;2022-11-15T05:13:37;5.93;;;1.40;;
74922;SDS011;64715;44.760;37.678;2022-11-15T05:14:56;5.53;;;1.38;;
74922;SDS011;64715;44.760;37.678;2022-11-15T05:16:16;6.30;;;1.33;;
74922;SDS011;64715;44.760;37.678;2022-11-15T05:17:35;5.50;;;1.38;;
74922;SDS011;64715;44.760;37.678;2022-11-15T05:18:55;5.93;;;1.35;;
74922;SDS011;64715;44.760;37.678;2022-11-15T05:20:15;6.18;;;1.45;;
74922;SDS011;64715;44.760;37.678;2022-11-15T05:21:34;7.63;;;1.40;;
74922;SDS011;64715;44.760;37.678;2022-11-15T05:22:54;6.88;;;1.60;;
74922;SDS011;64715;44.760;37.678;2022-11-15T05:24:16;7.87;;;1.40;;
74922;SDS011;64715;44.760;37.678;2022-11-15T05:25:36;6.60;;;1.27;;
74922;SDS011;64715;44.760;37.678;2022-11-15T05:26:57;6.43;;;1.45;;
74922;SDS011;64715;44.760;37.678;2022-11-15T05:28:16;5.82;;;1.55;;
74922;SDS011;64715;44.760;37.678;2022-11-15T05:29:36;5.93;;;1.45;;
74922;SDS011;64715;44.760;37.678;2022-11-15T05:31:02;5.22;;;1.17;;
74922;SDS011;64715;44.760;37.678;2022-11-15T05:32:29;8.00;;;1.52;;
74922;SDS011;64715;44.760;37.678;2022-11-15T05:33:49;8.55;;;2.70;;
74922;SDS011;64715;44.760;37.678;2022-11-15T05:35:15;7.05;;;1.90;;
74922;SDS011;64715;44.760;37.678;2022-11-15T05:36:41;7.10;;;2.00;;
74922;SDS011;64715;44.760;37.678;2022-11-15T05:38:02;8.97;;;3.10;;
74922;SDS011;64715;44.760;37.678;2022-11-15T05:39:21;6.63;;;1.40;;
74922;SDS011;64715;44.760;37.678;2022-11-15T05:40:41;5.70;;;1.50;;
74922;SDS011;64715;44.760;37.678;2022-11-15T05:42:02;9.38;;;1.80;;
74922;SDS011;64715;44.760;37.678;2022-11-15T05:43:29;6.43;;;1.73;;
74922;SDS011;64715;44.760;37.678;2022-11-15T05:44:51;6.95;;;1.85;;
74922;SDS011;64715;44.760;37.678;2022-11-15T05:46:11;5.55;;;1.73;;
74922;SDS011;64715;44.760;37.678;2022-11-15T05:47:32;6.13;;;1.70;;
74922;SDS011;64715;44.760;37.678;2022-11-15T05:48:55;5.68;;;1.13;;
74922;SDS011;64715;44.760;37.678;2022-11-15T05:50:16;6.72;;;1.80;;
74922;SDS011;64715;44.760;37.678;2022-11-15T05:51:38;8.07;;;1.48;;
74922;SDS011;64715;44.760;37.678;2022-11-15T05:53:00;6.40;;;1.73;;
74922;SDS011;64715;44.760;37.678;2022-11-15T05:54:21;7.85;;;1.95;;
74922;SDS011;64715;44.760;37.678;2022-11-15T05:55:42;8.10;;;1.48;;
74922;SDS011;64715;44.760;37.678;2022-11-15T05:57:03;7.28;;;1.55;;
74922;SDS011;64715;44.760;37.678;2022-11-15T05:58:23;6.45;;;1.90;;
74922;SDS011;64715;44.760;37.678;2022-11-15T05:59:42;7.20;;;1.30;;
74922;SDS011;64715;44.760;37.678;2022-11-15T06:01:02;12.95;;;1.88;;
74922;SDS011;64715;44.760;37.678;2022-11-15T06:02:22;7.40;;;1.52;;
74922;SDS011;64715;44.760;37.678;2022-11-15T06:03:41;5.28;;;1.25;;
74922;SDS011;64715;44.760;37.678;2022-11-15T06:05:00;6.53;;;1.63;;
74922;SDS011;64715;44.760;37.678;2022-11-15T06:06:20;5.00;;;1.33;;
74922;SDS011;64715;44.760;37.678;2022-11-15T06:07:39;7.60;;;1.70;;
74922;SDS011;64715;44.760;37.678;2022-11-15T06:08:59;7.93;;;1.60;;
74922;SDS011;64715;44.760;37.678;2022-11-15T06:10:19;6.55;;;1.70;;
74922;SDS011;64715;44.760;37.678;2022-11-15T06:11:39;6.45;;;1.50;;
74922;SDS011;64715;44.760;37.678;2022-11-15T06:12:59;5.95;;;1.60;;
74922;SDS011;64715;44.760;37.678;2022-11-15T06:14:21;8.70;;;1.80;;
74922;SDS011;64715;44.760;37.678;2022-11-15T06:15:40;6.20;;;1.42;;
74922;SDS011;64715;44.760;37.678;2022-11-15T06:17:00;7.50;;;1.70;;
74922;SDS011;64715;44.760;37.678;2022-11-15T06:18:20;8.75;;;1.65;;
74922;SDS011;64715;44.760;37.678;2022-11-15T06:19:40;8.10;;;1.40;;
74922;SDS011;64715;44.760;37.678;2022-11-15T06:20:59;6.53;;;1.65;;
74922;SDS011;64715;44.760;37.678;2022-11-15T06:22:19;5.78;;;1.60;;
74922;SDS011;64715;44.760;37.678;2022-11-15T06:23:39;8.25;;;1.45;;
74922;SDS011;64715;44.760;37.678;2022-11-15T06:24:58;7.72;;;1.73;;
74922;SDS011;64715;44.760;37.678;2022-11-15T06:26:21;6.43;;;2.00;;
74922;SDS011;64715;44.760;37.678;2022-11-15T06:27:40;7.28;;;1.58;;
74922;SDS011;64715;44.760;37.678;2022-11-15T06:28:59;6.65;;;1.90;;
74922;SDS011;64715;44.760;37.678;2022-11-15T06:30:20;7.65;;;1.80;;
74922;SDS011;64715;44.760;37.678;2022-11-15T06:31:40;7.75;;;2.58;;
74922;SDS011;64715;44.760;37.678;2022-11-15T06:33:00;9.87;;;3.60;;
74922;SDS011;64715;44.760;37.678;2022-11-15T06:34:20;9.68;;;3.15;;
74922;SDS011;64715;44.760;37.678;2022-11-15T06:35:40;10.05;;;3.97;;
74922;SDS011;64715;44.760;37.678;2022-11-15T06:36:59;8.45;;;2.08;;
74922;SDS011;64715;44.760;37.678;2022-11-15T06:38:18;6.68;;;1.00;;
74922;SDS011;64715;44.760;37.678;2022-11-15T06:39:38;27.50;;;12.80;;
74922;SDS011;64715;44.760;37.678;2022-11-15T06:41:02;36.15;;;15.48;;
74922;SDS011;64715;44.760;37.678;2022-11-15T06:42:23;18.17;;;7.97;;
74922;SDS011;64715;44.760;37.678;2022-11-15T06:43:42;17.58;;;8.52;;
74922;SDS011;64715;44.760;37.678;2022-11-15T06:45:02;18.10;;;8.98;;
74922;SDS011;64715;44.760;37.678;2022-11-15T06:46:22;13.97;;;6.57;;
74922;SDS011;64715;44.760;37.678;2022-11-15T06:47:45;5.70;;;1.67;;
74922;SDS011;64715;44.760;37.678;2022-11-15T06:49:05;8.27;;;1.50;;
74922;SDS011;64715;44.760;37.678;2022-11-15T06:50:25;8.48;;;4.55;;
74922;SDS011;64715;44.760;37.678;2022-11-15T06:51:45;8.73;;;4.50;;
74922;SDS011;64715;44.760;37.678;2022-11-15T06:53:04;5.88;;;1.83;;
74922;SDS011;64715;44.760;37.678;2022-11-15T06:54:23;6.57;;;1.30;;
74922;SDS011;64715;44.760;37.678;2022-11-15T06:55:43;6.05;;;1.30;;
74922;SDS011;64715;44.760;37.678;2022-11-15T06:57:04;8.13;;;1.42;;
74922;SDS011;64715;44.760;37.678;2022-11-15T06:58:23;5.85;;;1.20;;
74922;SDS011;64715;44.760;37.678;2022-11-15T06:59:43;8.97;;;1.33;;
74922;SDS011;64715;44.760;37.678;2022-11-15T07:01:05;8.40;;;2.05;;
74922;SDS011;64715;44.760;37.678;2022-11-15T07:02:27;6.57;;;1.35;;
74922;SDS011;64715;44.760;37.678;2022-11-15T07:03:46;7.15;;;1.33;;
74922;SDS011;64715;44.760;37.678;2022-11-15T07:05:06;6.10;;;1.50;;
74922;SDS011;64715;44.760;37.678;2022-11-15T07:06:26;7.60;;;1.60;;
74922;SDS011;64715;44.760;37.678;2022-11-15T07:07:50;5.80;;;1.45;;
74922;SDS011;64715;44.760;37.678;2022-11-15T07:09:11;5.72;;;1.30;;
74922;SDS011;64715;44.760;37.678;2022-11-15T07:10:31;6.57;;;1.70;;
74922;SDS011;64715;44.760;37.678;2022-11-15T07:11:50;8.18;;;1.48;;
74922;SDS011;64715;44.760;37.678;2022-11-15T07:13:11;8.47;;;2.10;;
74922;SDS011;64715;44.760;37.678;2022-11-15T07:14:31;14.30;;;1.83;;
74922;SDS011;64715;44.760;37.678;2022-11-15T07:15:50;9.55;;;2.15;;
74922;SDS011;64715;44.760;37.678;2022-11-15T07:17:09;6.32;;;1.40;;
74922;SDS011;64715;44.760;37.678;2022-11-15T07:18:29;5.43;;;1.10;;
74922;SDS011;64715;44.760;37.678;2022-11-15T07:19:49;7.28;;;1.25;;
74922;SDS011;64715;44.760;37.678;2022-11-15T07:21:09;8.18;;;1.50;;
74922;SDS011;64715;44.760;37.678;2022-11-15T07:22:30;12.40;;;2.15;;
74922;SDS011;64715;44.760;37.678;2022-11-15T07:23:50;6.13;;;1.60;;
74922;SDS011;64715;44.760;37.678;2022-11-15T07:25:10;6.38;;;1.30;;
74922;SDS011;64715;44.760;37.678;2022-11-15T07:26:30;8.63;;;1.37;;
74922;SDS011;64715;44.760;37.678;2022-11-15T07:27:56;5.25;;;1.40;;
74922;SDS011;64715;44.760;37.678;2022-11-15T07:29:17;6.43;;;1.20;;
74922;SDS011;64715;44.760;37.678;2022-11-15T07:30:37;6.60;;;1.52;;
74922;SDS011;64715;44.760;37.678;2022-11-15T13:10:31;22.33;;;9.27;;
74922;SDS011;64715;44.760;37.678;2022-11-15T13:11:43;23.43;;;10.10;;
74922;SDS011;64715;44.760;37.678;2022-11-15T13:13:47;23.70;;;10.90;;
74922;SDS011;64715;44.760;37.678;2022-11-15T13:14:55;27.60;;;11.40;;
74922;SDS011;64715;44.760;37.678;2022-11-15T13:16:01;26.95;;;12.40;;
74922;SDS011;64715;44.760;37.678;2022-11-15T13:18:37;22.55;;;10.63;;
74922;SDS011;64715;44.760;37.678;2022-11-15T13:19:40;25.98;;;9.45;;
74922;SDS011;64715;44.760;37.678;2022-11-15T13:20:44;22.58;;;9.18;;
74922;SDS011;64715;44.760;37.678;2022-11-15T13:21:48;19.90;;;8.47;;
74922;SDS011;64715;44.760;37.678;2022-11-15T13:23:09;20.20;;;8.50;;
74922;SDS011;64715;44.760;37.678;2022-11-15T13:24:13;21.85;;;8.32;;
74922;SDS011;64715;44.760;37.678;2022-11-15T13:26:37;23.73;;;8.70;;
74922;SDS011;64715;44.760;37.678;2022-11-15T13:27:40;26.60;;;9.63;;
74922;SDS011;64715;44.760;37.678;2022-11-15T13:29:45;23.85;;;10.27;;
74922;SDS011;64715;44.760;37.678;2022-11-15T13:31:47;29.60;;;14.67;;
74922;SDS011;64715;44.760;37.678;2022-11-15T13:32:49;24.43;;;10.90;;
74922;SDS011;64715;44.760;37.678;2022-11-15T13:33:52;24.15;;;11.38;;
74922;SDS011;64715;44.760;37.678;2022-11-15T13:34:55;26.52;;;13.13;;
74922;SDS011;64715;44.760;37.678;2022-11-15T13:36:05;25.58;;;12.52;;
74922;SDS011;64715;44.760;37.678;2022-11-15T13:38:34;28.35;;;12.20;;
74922;SDS011;64715;44.760;37.678;2022-11-15T13:39:36;32.35;;;14.95;;
74922;SDS011;64715;44.760;37.678;2022-11-15T13:40:38;23.15;;;11.13;;
74922;SDS011;64715;44.760;37.678;2022-11-15T13:41:49;28.05;;;10.95;;
74922;SDS011;64715;44.760;37.678;2022-11-15T13:42:51;24.93;;;12.13;;
74922;SDS011;64715;44.760;37.678;2022-11-15T13:43:53;24.13;;;11.20;;
74922;SDS011;64715;44.760;37.678;2022-11-15T13:45:03;22.58;;;10.10;;
74922;SDS011;64715;44.760;37.678;2022-11-15T13:47:13;31.50;;;13.02;;
74922;SDS011;64715;44.760;37.678;2022-11-15T13:48:15;30.60;;;12.65;;
74922;SDS011;64715;44.760;37.678;2022-11-15T13:49:16;37.10;;;15.15;;
74922;SDS011;64715;44.760;37.678;2022-11-15T13:50:17;41.93;;;16.23;;
74922;SDS011;64715;44.760;37.678;2022-11-15T13:51:26;42.10;;;17.10;;
74922;SDS011;64715;44.760;37.678;2022-11-15T13:52:32;26.73;;;11.88;;
74922;SDS011;64715;44.760;37.678;2022-11-15T13:53:36;21.95;;;9.95;;
74922;SDS011;64715;44.760;37.678;2022-11-15T13:54:50;34.38;;;17.23;;
74922;SDS011;64715;44.760;37.678;2022-11-15T13:56:09;27.95;;;14.13;;
74922;SDS011;64715;44.760;37.678;2022-11-15T13:58:16;28.17;;;14.30;;
74922;SDS011;64715;44.760;37.678;2022-11-15T13:59:27;25.10;;;10.50;;
74922;SDS011;64715;44.760;37.678;2022-11-15T14:01:44;23.70;;;9.80;;
74922;SDS011;64715;44.760;37.678;2022-11-15T14:02:45;38.03;;;20.50;;
74922;SDS011;64715;44.760;37.678;2022-11-15T14:03:50;43.65;;;23.30;;
74922;SDS011;64715;44.760;37.678;2022-11-15T14:04:58;27.35;;;11.85;;
74922;SDS011;64715;44.760;37.678;2022-11-15T14:07:18;23.42;;;10.02;;
74922;SDS011;64715;44.760;37.678;2022-11-15T14:08:23;36.40;;;20.15;;
74922;SDS011;64715;44.760;37.678;2022-11-15T14:10:35;29.40;;;15.02;;
74922;SDS011;64715;44.760;37.678;2022-11-15T14:11:48;30.77;;;14.10;;
74922;SDS011;64715;44.760;37.678;2022-11-15T14:12:50;26.67;;;12.03;;
74922;SDS011;64715;44.760;37.678;2022-11-15T14:14:27;29.50;;;13.57;;
74922;SDS011;64715;44.760;37.678;2022-11-15T14:16:37;29.27;;;12.95;;
74922;SDS011;64715;44.760;37.678;2022-11-15T14:17:55;25.70;;;10.77;;